Lake Crystal, Minnesota
Current Conditions -  °F | °C
As of 7:35 PM on Monday 22 Dec 2014 (Local Time) from KMKT Reporting Station
Overcast Overcast  
Wind Chill: 29°   Ceiling: 800
Heat Index: 36°   Visibility: 5mi
Dew Point: 30°   Wind: 9mph
Humidity: 81%   Direction: 100°E
Pressure: 29.56"   Gusts: NA
Location:  44.11°N, 94.22°W
Report Text: KMKT 230135Z AUTO 10008KT 5SM BKN008 OVC014 02/M01 A2956 RMK AO1
Loading
Personal Weather Stations






























Interactive Weather Map New forecast layout! Learn more

10-Day Weather Forecast

Advertisements
Track Severe Weather on mobile